sensor_id;sensor_type;location;lat;lon;timestamp;temperature;humidity
11599;DHT22;5855;48.840;9.188;2024-01-06T00:00:53;4.90;99.90
11599;DHT22;5855;48.840;9.188;2024-01-06T00:03:21;4.90;99.90
11599;DHT22;5855;48.840;9.188;2024-01-06T00:05:47;4.90;99.90
11599;DHT22;5855;48.840;9.188;2024-01-06T00:08:14;4.80;99.90
11599;DHT22;5855;48.840;9.188;2024-01-06T00:10:41;4.80;99.90
11599;DHT22;5855;48.840;9.188;2024-01-06T00:13:10;4.80;99.90
11599;DHT22;5855;48.840;9.188;2024-01-06T00:15:37;4.80;99.90
11599;DHT22;5855;48.840;9.188;2024-01-06T00:18:04;4.90;99.90
11599;DHT22;5855;48.840;9.188;2024-01-06T00:20:32;4.90;99.90
11599;DHT22;5855;48.840;9.188;2024-01-06T00:22:59;4.90;99.90
11599;DHT22;5855;48.840;9.188;2024-01-06T00:25:26;4.90;99.90
11599;DHT22;5855;48.840;9.188;2024-01-06T00:27:51;4.90;99.90
11599;DHT22;5855;48.840;9.188;2024-01-06T00:30:18;4.90;99.90
11599;DHT22;5855;48.840;9.188;2024-01-06T00:32:45;4.90;99.90
11599;DHT22;5855;48.840;9.188;2024-01-06T00:35:12;4.90;99.90
11599;DHT22;5855;48.840;9.188;2024-01-06T00:37:40;4.90;99.90
11599;DHT22;5855;48.840;9.188;2024-01-06T00:40:07;4.90;99.90
11599;DHT22;5855;48.840;9.188;2024-01-06T00:42:34;4.90;99.90
11599;DHT22;5855;48.840;9.188;2024-01-06T00:45:01;5.00;99.90
11599;DHT22;5855;48.840;9.188;2024-01-06T00:47:28;4.90;99.90
11599;DHT22;5855;48.840;9.188;2024-01-06T00:49:55;5.00;99.90
11599;DHT22;5855;48.840;9.188;2024-01-06T00:52:22;5.00;99.90
11599;DHT22;5855;48.840;9.188;2024-01-06T00:54:50;5.00;99.90
11599;DHT22;5855;48.840;9.188;2024-01-06T00:57:17;5.00;99.90
11599;DHT22;5855;48.840;9.188;2024-01-06T00:59:49;5.10;99.90
11599;DHT22;5855;48.840;9.188;2024-01-06T01:02:16;5.10;99.90
11599;DHT22;5855;48.840;9.188;2024-01-06T01:04:43;5.10;99.90
11599;DHT22;5855;48.840;9.188;2024-01-06T01:07:09;5.00;99.90
11599;DHT22;5855;48.840;9.188;2024-01-06T01:09:36;5.10;99.90
11599;DHT22;5855;48.840;9.188;2024-01-06T01:12:05;5.00;99.90
11599;DHT22;5855;48.840;9.188;2024-01-06T01:14:32;5.00;99.90
11599;DHT22;5855;48.840;9.188;2024-01-06T01:16:59;5.00;99.90
11599;DHT22;5855;48.840;9.188;2024-01-06T01:19:25;5.00;99.90
11599;DHT22;5855;48.840;9.188;2024-01-06T01:21:52;5.00;99.90
11599;DHT22;5855;48.840;9.188;2024-01-06T01:24:21;5.00;99.90
11599;DHT22;5855;48.840;9.188;2024-01-06T01:26:47;4.90;99.90
11599;DHT22;5855;48.840;9.188;2024-01-06T01:29:16;5.00;99.90
11599;DHT22;5855;48.840;9.188;2024-01-06T01:31:45;5.00;99.90
11599;DHT22;5855;48.840;9.188;2024-01-06T01:34:12;5.00;99.90
11599;DHT22;5855;48.840;9.188;2024-01-06T01:36:39;5.10;99.90
11599;DHT22;5855;48.840;9.188;2024-01-06T01:39:06;5.00;99.90
11599;DHT22;5855;48.840;9.188;2024-01-06T01:41:33;5.00;99.90
11599;DHT22;5855;48.840;9.188;2024-01-06T01:43:59;5.00;99.90
11599;DHT22;5855;48.840;9.188;2024-01-06T01:46:28;5.00;99.90
11599;DHT22;5855;48.840;9.188;2024-01-06T01:48:57;5.00;99.90
11599;DHT22;5855;48.840;9.188;2024-01-06T01:51:27;5.00;99.90
11599;DHT22;5855;48.840;9.188;2024-01-06T01:53:54;4.90;99.90
11599;DHT22;5855;48.840;9.188;2024-01-06T01:56:21;5.00;99.90
11599;DHT22;5855;48.840;9.188;2024-01-06T01:58:48;5.00;99.90
11599;DHT22;5855;48.840;9.188;2024-01-06T02:01:15;5.00;99.90
11599;DHT22;5855;48.840;9.188;2024-01-06T02:03:43;5.00;99.90
11599;DHT22;5855;48.840;9.188;2024-01-06T02:06:11;5.00;99.90
11599;DHT22;5855;48.840;9.188;2024-01-06T02:08:38;5.00;99.90
11599;DHT22;5855;48.840;9.188;2024-01-06T02:11:05;5.00;99.90
11599;DHT22;5855;48.840;9.188;2024-01-06T02:13:36;5.00;99.90
11599;DHT22;5855;48.840;9.188;2024-01-06T02:16:04;5.00;99.90
11599;DHT22;5855;48.840;9.188;2024-01-06T02:18:31;5.10;99.90
11599;DHT22;5855;48.840;9.188;2024-01-06T02:21:01;5.10;99.90
11599;DHT22;5855;48.840;9.188;2024-01-06T02:23:29;5.10;99.90
11599;DHT22;5855;48.840;9.188;2024-01-06T02:25:56;5.10;99.90
11599;DHT22;5855;48.840;9.188;2024-01-06T02:28:23;5.10;99.90
11599;DHT22;5855;48.840;9.188;2024-01-06T02:30:50;5.10;99.90
11599;DHT22;5855;48.840;9.188;2024-01-06T02:33:17;5.10;99.90
11599;DHT22;5855;48.840;9.188;2024-01-06T02:35:45;5.10;99.90
11599;DHT22;5855;48.840;9.188;2024-01-06T02:38:12;5.10;99.90
11599;DHT22;5855;48.840;9.188;2024-01-06T02:40:40;5.10;99.90
11599;DHT22;5855;48.840;9.188;2024-01-06T02:43:08;5.10;99.90
11599;DHT22;5855;48.840;9.188;2024-01-06T02:45:35;5.20;99.90
11599;DHT22;5855;48.840;9.188;2024-01-06T02:48:02;5.20;99.90
11599;DHT22;5855;48.840;9.188;2024-01-06T02:50:28;5.30;99.90
11599;DHT22;5855;48.840;9.188;2024-01-06T02:52:55;5.30;99.90
11599;DHT22;5855;48.840;9.188;2024-01-06T02:55:22;5.30;99.90
11599;DHT22;5855;48.840;9.188;2024-01-06T02:57:50;5.20;99.90
11599;DHT22;5855;48.840;9.188;2024-01-06T03:00:17;5.20;99.90
11599;DHT22;5855;48.840;9.188;2024-01-06T03:02:44;5.20;99.90
11599;DHT22;5855;48.840;9.188;2024-01-06T03:05:11;5.20;99.90
11599;DHT22;5855;48.840;9.188;2024-01-06T03:07:38;5.20;99.90
11599;DHT22;5855;48.840;9.188;2024-01-06T03:10:05;5.20;99.90
11599;DHT22;5855;48.840;9.188;2024-01-06T03:12:32;5.20;99.90
11599;DHT22;5855;48.840;9.188;2024-01-06T03:15:00;5.20;99.90
11599;DHT22;5855;48.840;9.188;2024-01-06T03:17:27;5.20;99.90
11599;DHT22;5855;48.840;9.188;2024-01-06T03:19:54;5.20;99.90
11599;DHT22;5855;48.840;9.188;2024-01-06T03:22:21;5.20;99.90
11599;DHT22;5855;48.840;9.188;2024-01-06T03:24:48;5.20;99.90
11599;DHT22;5855;48.840;9.188;2024-01-06T03:27:15;5.30;99.90
11599;DHT22;5855;48.840;9.188;2024-01-06T03:29:42;5.20;99.90
11599;DHT22;5855;48.840;9.188;2024-01-06T03:32:10;5.10;99.90
11599;DHT22;5855;48.840;9.188;2024-01-06T03:34:36;5.20;99.90
11599;DHT22;5855;48.840;9.188;2024-01-06T03:37:03;5.20;99.90
11599;DHT22;5855;48.840;9.188;2024-01-06T03:39:30;5.20;99.90
11599;DHT22;5855;48.840;9.188;2024-01-06T03:41:57;5.10;99.90
11599;DHT22;5855;48.840;9.188;2024-01-06T03:44:24;5.20;99.90
11599;DHT22;5855;48.840;9.188;2024-01-06T03:46:55;5.20;99.90
11599;DHT22;5855;48.840;9.188;2024-01-06T03:49:24;5.10;99.90
11599;DHT22;5855;48.840;9.188;2024-01-06T03:51:51;5.10;99.90
11599;DHT22;5855;48.840;9.188;2024-01-06T03:54:17;5.10;99.90
11599;DHT22;5855;48.840;9.188;2024-01-06T03:56:44;5.10;99.90
11599;DHT22;5855;48.840;9.188;2024-01-06T03:59:11;5.10;99.90
11599;DHT22;5855;48.840;9.188;2024-01-06T04:01:38;5.10;99.90
11599;DHT22;5855;48.840;9.188;2024-01-06T04:04:05;5.10;99.90
11599;DHT22;5855;48.840;9.188;2024-01-06T04:06:33;5.10;99.90
11599;DHT22;5855;48.840;9.188;2024-01-06T04:09:00;5.10;99.90
11599;DHT22;5855;48.840;9.188;2024-01-06T04:11:28;5.10;99.90
11599;DHT22;5855;48.840;9.188;2024-01-06T04:13:54;5.10;99.90
11599;DHT22;5855;48.840;9.188;2024-01-06T04:16:21;5.20;99.90
11599;DHT22;5855;48.840;9.188;2024-01-06T04:18:48;5.20;99.90
11599;DHT22;5855;48.840;9.188;2024-01-06T04:21:15;5.20;99.90
11599;DHT22;5855;48.840;9.188;2024-01-06T04:23:43;5.30;99.90
11599;DHT22;5855;48.840;9.188;2024-01-06T04:26:09;5.20;99.90
11599;DHT22;5855;48.840;9.188;2024-01-06T04:28:36;5.20;99.90
11599;DHT22;5855;48.840;9.188;2024-01-06T04:31:03;5.10;99.90
11599;DHT22;5855;48.840;9.188;2024-01-06T04:33:29;5.10;99.90
11599;DHT22;5855;48.840;9.188;2024-01-06T04:35:56;5.10;99.90
11599;DHT22;5855;48.840;9.188;2024-01-06T04:38:24;5.10;99.90
11599;DHT22;5855;48.840;9.188;2024-01-06T04:40:52;5.10;99.90
11599;DHT22;5855;48.840;9.188;2024-01-06T04:43:19;5.00;99.90
11599;DHT22;5855;48.840;9.188;2024-01-06T04:45:46;5.00;99.90
11599;DHT22;5855;48.840;9.188;2024-01-06T04:48:13;5.00;99.90
11599;DHT22;5855;48.840;9.188;2024-01-06T04:50:39;5.00;99.90
11599;DHT22;5855;48.840;9.188;2024-01-06T04:53:06;4.90;99.90
11599;DHT22;5855;48.840;9.188;2024-01-06T04:55:33;4.90;99.90
11599;DHT22;5855;48.840;9.188;2024-01-06T04:58:01;4.90;99.90
11599;DHT22;5855;48.840;9.188;2024-01-06T05:00:28;4.80;99.90
11599;DHT22;5855;48.840;9.188;2024-01-06T05:02:55;4.80;99.90
11599;DHT22;5855;48.840;9.188;2024-01-06T05:05:22;4.80;99.90
11599;DHT22;5855;48.840;9.188;2024-01-06T05:07:49;4.80;99.90
11599;DHT22;5855;48.840;9.188;2024-01-06T05:10:16;4.80;99.90
11599;DHT22;5855;48.840;9.188;2024-01-06T05:12:42;4.80;99.90
11599;DHT22;5855;48.840;9.188;2024-01-06T05:15:11;4.80;99.90
11599;DHT22;5855;48.840;9.188;2024-01-06T05:17:38;4.80;99.90
11599;DHT22;5855;48.840;9.188;2024-01-06T05:20:06;4.80;99.90
11599;DHT22;5855;48.840;9.188;2024-01-06T05:22:33;4.80;99.90
11599;DHT22;5855;48.840;9.188;2024-01-06T05:25:00;4.80;99.90
11599;DHT22;5855;48.840;9.188;2024-01-06T05:27:27;4.80;99.90
11599;DHT22;5855;48.840;9.188;2024-01-06T05:29:53;4.70;99.90
11599;DHT22;5855;48.840;9.188;2024-01-06T05:32:22;4.80;99.90
11599;DHT22;5855;48.840;9.188;2024-01-06T05:34:48;4.70;99.90
11599;DHT22;5855;48.840;9.188;2024-01-06T05:37:15;4.70;99.90
11599;DHT22;5855;48.840;9.188;2024-01-06T05:39:42;4.70;99.90
11599;DHT22;5855;48.840;9.188;2024-01-06T05:42:09;4.70;99.90
11599;DHT22;5855;48.840;9.188;2024-01-06T05:44:37;4.70;99.90
11599;DHT22;5855;48.840;9.188;2024-01-06T05:47:04;4.70;99.90
11599;DHT22;5855;48.840;9.188;2024-01-06T05:49:32;4.70;99.90
11599;DHT22;5855;48.840;9.188;2024-01-06T05:51:59;4.70;99.90
11599;DHT22;5855;48.840;9.188;2024-01-06T05:54:26;4.70;99.90
11599;DHT22;5855;48.840;9.188;2024-01-06T05:56:53;4.70;99.90
11599;DHT22;5855;48.840;9.188;2024-01-06T05:59:20;4.60;99.90
11599;DHT22;5855;48.840;9.188;2024-01-06T06:01:46;4.60;99.90
11599;DHT22;5855;48.840;9.188;2024-01-06T06:04:13;4.60;99.90
11599;DHT22;5855;48.840;9.188;2024-01-06T06:06:41;4.60;99.90
11599;DHT22;5855;48.840;9.188;2024-01-06T06:09:08;4.60;99.90
11599;DHT22;5855;48.840;9.188;2024-01-06T06:11:35;4.60;99.90
11599;DHT22;5855;48.840;9.188;2024-01-06T06:14:02;4.60;99.90
11599;DHT22;5855;48.840;9.188;2024-01-06T06:16:30;4.60;99.90
11599;DHT22;5855;48.840;9.188;2024-01-06T06:18:57;4.60;99.90
11599;DHT22;5855;48.840;9.188;2024-01-06T06:21:23;4.70;99.90
11599;DHT22;5855;48.840;9.188;2024-01-06T06:23:51;4.80;99.90
11599;DHT22;5855;48.840;9.188;2024-01-06T06:26:18;4.70;99.90
11599;DHT22;5855;48.840;9.188;2024-01-06T06:28:45;4.70;99.90
11599;DHT22;5855;48.840;9.188;2024-01-06T06:31:12;4.70;99.90
11599;DHT22;5855;48.840;9.188;2024-01-06T06:33:39;4.60;99.90
11599;DHT22;5855;48.840;9.188;2024-01-06T06:36:06;4.60;99.90
11599;DHT22;5855;48.840;9.188;2024-01-06T06:38:33;4.60;99.90
11599;DHT22;5855;48.840;9.188;2024-01-06T06:41:01;4.60;99.90
11599;DHT22;5855;48.840;9.188;2024-01-06T06:43:28;4.70;99.90
11599;DHT22;5855;48.840;9.188;2024-01-06T06:45:54;4.80;99.90
11599;DHT22;5855;48.840;9.188;2024-01-06T06:48:22;4.80;99.90
11599;DHT22;5855;48.840;9.188;2024-01-06T06:50:48;4.80;99.90
11599;DHT22;5855;48.840;9.188;2024-01-06T06:53:15;4.80;99.90
11599;DHT22;5855;48.840;9.188;2024-01-06T06:55:42;4.90;99.90
11599;DHT22;5855;48.840;9.188;2024-01-06T06:58:11;4.90;99.90
11599;DHT22;5855;48.840;9.188;2024-01-06T07:00:38;4.90;99.90
11599;DHT22;5855;48.840;9.188;2024-01-06T07:03:05;4.90;99.90
11599;DHT22;5855;48.840;9.188;2024-01-06T07:05:32;4.80;99.90
11599;DHT22;5855;48.840;9.188;2024-01-06T07:08:00;4.80;99.90
11599;DHT22;5855;48.840;9.188;2024-01-06T07:10:27;4.80;99.90
11599;DHT22;5855;48.840;9.188;2024-01-06T07:12:54;4.90;99.90
11599;DHT22;5855;48.840;9.188;2024-01-06T07:15:22;5.00;99.90
11599;DHT22;5855;48.840;9.188;2024-01-06T07:17:49;5.00;99.90
11599;DHT22;5855;48.840;9.188;2024-01-06T07:20:15;5.00;99.90
11599;DHT22;5855;48.840;9.188;2024-01-06T07:22:42;4.90;99.90
11599;DHT22;5855;48.840;9.188;2024-01-06T07:25:09;4.90;99.90
11599;DHT22;5855;48.840;9.188;2024-01-06T07:27:36;5.00;99.90
11599;DHT22;5855;48.840;9.188;2024-01-06T07:30:03;5.00;99.90
11599;DHT22;5855;48.840;9.188;2024-01-06T07:32:33;5.10;99.90
11599;DHT22;5855;48.840;9.188;2024-01-06T07:35:00;5.10;99.90
11599;DHT22;5855;48.840;9.188;2024-01-06T07:37:27;5.10;99.90
11599;DHT22;5855;48.840;9.188;2024-01-06T07:39:54;5.20;99.90
11599;DHT22;5855;48.840;9.188;2024-01-06T07:42:27;5.30;99.90
11599;DHT22;5855;48.840;9.188;2024-01-06T07:44:56;5.40;99.90
11599;DHT22;5855;48.840;9.188;2024-01-06T07:47:26;5.50;99.90
11599;DHT22;5855;48.840;9.188;2024-01-06T07:49:55;5.50;99.90
11599;DHT22;5855;48.840;9.188;2024-01-06T07:52:22;5.50;99.90
11599;DHT22;5855;48.840;9.188;2024-01-06T07:54:49;5.50;99.90
11599;DHT22;5855;48.840;9.188;2024-01-06T07:57:16;5.50;99.90
11599;DHT22;5855;48.840;9.188;2024-01-06T07:59:43;5.50;99.90
11599;DHT22;5855;48.840;9.188;2024-01-06T08:02:10;5.50;99.90
11599;DHT22;5855;48.840;9.188;2024-01-06T08:04:37;5.50;99.90
11599;DHT22;5855;48.840;9.188;2024-01-06T08:07:05;5.40;99.90
11599;DHT22;5855;48.840;9.188;2024-01-06T08:09:32;5.50;99.90
11599;DHT22;5855;48.840;9.188;2024-01-06T08:12:02;5.50;99.90
11599;DHT22;5855;48.840;9.188;2024-01-06T08:14:29;5.50;99.90
11599;DHT22;5855;48.840;9.188;2024-01-06T08:16:56;5.50;99.90
11599;DHT22;5855;48.840;9.188;2024-01-06T08:19:25;5.50;99.90
11599;DHT22;5855;48.840;9.188;2024-01-06T08:21:54;5.50;99.90
11599;DHT22;5855;48.840;9.188;2024-01-06T08:24:22;5.50;99.90
11599;DHT22;5855;48.840;9.188;2024-01-06T08:26:48;5.50;99.90
11599;DHT22;5855;48.840;9.188;2024-01-06T08:29:15;5.50;99.90
11599;DHT22;5855;48.840;9.188;2024-01-06T08:31:45;5.60;99.90
11599;DHT22;5855;48.840;9.188;2024-01-06T08:34:11;5.70;99.90
11599;DHT22;5855;48.840;9.188;2024-01-06T08:36:38;5.70;99.90
11599;DHT22;5855;48.840;9.188;2024-01-06T08:39:05;5.60;99.90
11599;DHT22;5855;48.840;9.188;2024-01-06T08:41:35;5.60;99.90
11599;DHT22;5855;48.840;9.188;2024-01-06T08:44:04;5.70;99.90
11599;DHT22;5855;48.840;9.188;2024-01-06T08:46:31;5.80;99.90
11599;DHT22;5855;48.840;9.188;2024-01-06T08:48:58;5.70;99.90
11599;DHT22;5855;48.840;9.188;2024-01-06T08:51:25;5.70;99.90
11599;DHT22;5855;48.840;9.188;2024-01-06T08:53:52;5.80;99.90
11599;DHT22;5855;48.840;9.188;2024-01-06T08:56:20;5.80;99.90
11599;DHT22;5855;48.840;9.188;2024-01-06T08:58:52;5.90;99.90
11599;DHT22;5855;48.840;9.188;2024-01-06T09:01:20;5.90;99.90
11599;DHT22;5855;48.840;9.188;2024-01-06T09:03:47;5.90;99.90
11599;DHT22;5855;48.840;9.188;2024-01-06T09:06:15;5.90;99.90
11599;DHT22;5855;48.840;9.188;2024-01-06T09:08:42;6.00;99.90
11599;DHT22;5855;48.840;9.188;2024-01-06T09:11:09;6.10;99.90
11599;DHT22;5855;48.840;9.188;2024-01-06T09:13:36;6.20;99.90
11599;DHT22;5855;48.840;9.188;2024-01-06T09:16:04;6.20;99.90
11599;DHT22;5855;48.840;9.188;2024-01-06T09:18:31;6.20;99.90
11599;DHT22;5855;48.840;9.188;2024-01-06T09:20:58;6.20;99.90
11599;DHT22;5855;48.840;9.188;2024-01-06T09:23:25;6.10;99.90
11599;DHT22;5855;48.840;9.188;2024-01-06T09:25:52;6.10;99.90
11599;DHT22;5855;48.840;9.188;2024-01-06T09:28:19;6.20;99.90
11599;DHT22;5855;48.840;9.188;2024-01-06T09:30:46;6.20;99.90
11599;DHT22;5855;48.840;9.188;2024-01-06T09:33:15;6.20;99.90
11599;DHT22;5855;48.840;9.188;2024-01-06T09:35:43;6.10;99.90
11599;DHT22;5855;48.840;9.188;2024-01-06T09:38:13;6.10;99.90
11599;DHT22;5855;48.840;9.188;2024-01-06T09:40:42;6.20;99.90
11599;DHT22;5855;48.840;9.188;2024-01-06T09:43:09;6.20;99.90
11599;DHT22;5855;48.840;9.188;2024-01-06T09:45:37;6.30;99.90
11599;DHT22;5855;48.840;9.188;2024-01-06T09:48:23;6.30;99.90
11599;DHT22;5855;48.840;9.188;2024-01-06T09:50:56;6.30;99.90
11599;DHT22;5855;48.840;9.188;2024-01-06T09:53:24;6.30;99.90
11599;DHT22;5855;48.840;9.188;2024-01-06T09:55:53;6.30;99.90
11599;DHT22;5855;48.840;9.188;2024-01-06T09:58:21;6.30;99.90
11599;DHT22;5855;48.840;9.188;2024-01-06T10:00:48;6.20;99.90
11599;DHT22;5855;48.840;9.188;2024-01-06T10:03:15;6.30;99.90
11599;DHT22;5855;48.840;9.188;2024-01-06T10:05:44;6.30;99.90
11599;DHT22;5855;48.840;9.188;2024-01-06T10:08:10;6.30;99.90
11599;DHT22;5855;48.840;9.188;2024-01-06T10:10:37;6.30;99.90
11599;DHT22;5855;48.840;9.188;2024-01-06T10:13:04;6.30;99.90
11599;DHT22;5855;48.840;9.188;2024-01-06T10:15:35;6.30;99.90
11599;DHT22;5855;48.840;9.188;2024-01-06T10:18:03;6.30;99.90
11599;DHT22;5855;48.840;9.188;2024-01-06T10:20:30;6.40;99.90
11599;DHT22;5855;48.840;9.188;2024-01-06T10:23:04;6.50;99.90
11599;DHT22;5855;48.840;9.188;2024-01-06T10:25:32;6.40;99.90
11599;DHT22;5855;48.840;9.188;2024-01-06T10:28:00;6.40;99.90
11599;DHT22;5855;48.840;9.188;2024-01-06T10:30:27;6.30;99.90
11599;DHT22;5855;48.840;9.188;2024-01-06T10:32:54;6.40;99.90
11599;DHT22;5855;48.840;9.188;2024-01-06T10:35:21;6.40;99.90
11599;DHT22;5855;48.840;9.188;2024-01-06T10:37:48;6.40;99.90
11599;DHT22;5855;48.840;9.188;2024-01-06T10:40:16;6.40;99.90
11599;DHT22;5855;48.840;9.188;2024-01-06T10:42:44;6.30;99.90
11599;DHT22;5855;48.840;9.188;2024-01-06T10:45:12;6.40;99.90
11599;DHT22;5855;48.840;9.188;2024-01-06T10:47:41;6.30;99.90
11599;DHT22;5855;48.840;9.188;2024-01-06T10:50:10;6.40;99.90
11599;DHT22;5855;48.840;9.188;2024-01-06T10:52:38;6.40;99.90
11599;DHT22;5855;48.840;9.188;2024-01-06T10:55:05;6.30;99.90
11599;DHT22;5855;48.840;9.188;2024-01-06T10:57:34;6.30;99.90
11599;DHT22;5855;48.840;9.188;2024-01-06T11:00:07;6.20;99.90
11599;DHT22;5855;48.840;9.188;2024-01-06T11:02:35;6.10;99.90
11599;DHT22;5855;48.840;9.188;2024-01-06T11:05:03;6.20;99.90
11599;DHT22;5855;48.840;9.188;2024-01-06T11:07:33;6.10;99.90
11599;DHT22;5855;48.840;9.188;2024-01-06T11:10:05;6.10;99.90
11599;DHT22;5855;48.840;9.188;2024-01-06T11:12:34;6.00;99.90
11599;DHT22;5855;48.840;9.188;2024-01-06T11:15:01;6.00;99.90
11599;DHT22;5855;48.840;9.188;2024-01-06T11:17:50;6.10;99.90
11599;DHT22;5855;48.840;9.188;2024-01-06T11:20:21;6.20;99.90
11599;DHT22;5855;48.840;9.188;2024-01-06T11:22:49;6.30;99.90
11599;DHT22;5855;48.840;9.188;2024-01-06T11:25:17;6.40;99.90
11599;DHT22;5855;48.840;9.188;2024-01-06T11:27:46;6.50;99.90
11599;DHT22;5855;48.840;9.188;2024-01-06T11:30:20;6.40;99.90
11599;DHT22;5855;48.840;9.188;2024-01-06T11:32:48;6.40;99.90
11599;DHT22;5855;48.840;9.188;2024-01-06T11:35:15;6.40;99.90
11599;DHT22;5855;48.840;9.188;2024-01-06T11:37:56;6.30;99.90
11599;DHT22;5855;48.840;9.188;2024-01-06T11:40:34;6.30;99.90
11599;DHT22;5855;48.840;9.188;2024-01-06T11:43:04;6.40;99.90
11599;DHT22;5855;48.840;9.188;2024-01-06T11:45:32;6.30;99.90
11599;DHT22;5855;48.840;9.188;2024-01-06T11:48:00;6.40;99.90
11599;DHT22;5855;48.840;9.188;2024-01-06T11:50:28;6.50;99.90
11599;DHT22;5855;48.840;9.188;2024-01-06T11:52:55;6.60;99.90
11599;DHT22;5855;48.840;9.188;2024-01-06T11:55:22;6.50;99.90
11599;DHT22;5855;48.840;9.188;2024-01-06T11:57:49;6.50;99.90
11599;DHT22;5855;48.840;9.188;2024-01-06T12:00:18;6.40;99.90
11599;DHT22;5855;48.840;9.188;2024-01-06T12:02:45;6.30;99.90
11599;DHT22;5855;48.840;9.188;2024-01-06T12:05:15;6.30;99.90
11599;DHT22;5855;48.840;9.188;2024-01-06T12:07:43;6.30;99.90
11599;DHT22;5855;48.840;9.188;2024-01-06T12:10:10;6.40;99.90
11599;DHT22;5855;48.840;9.188;2024-01-06T12:12:39;6.40;99.90
11599;DHT22;5855;48.840;9.188;2024-01-06T12:15:07;6.30;99.90
11599;DHT22;5855;48.840;9.188;2024-01-06T12:17:39;6.20;99.90
11599;DHT22;5855;48.840;9.188;2024-01-06T12:20:07;6.30;99.90
11599;DHT22;5855;48.840;9.188;2024-01-06T12:22:35;6.20;99.90
11599;DHT22;5855;48.840;9.188;2024-01-06T12:25:03;6.20;99.90
11599;DHT22;5855;48.840;9.188;2024-01-06T12:27:32;6.20;99.90
11599;DHT22;5855;48.840;9.188;2024-01-06T12:29:59;6.20;99.90
11599;DHT22;5855;48.840;9.188;2024-01-06T12:32:26;6.20;99.90
11599;DHT22;5855;48.840;9.188;2024-01-06T12:34:54;6.20;99.90
11599;DHT22;5855;48.840;9.188;2024-01-06T12:37:22;6.20;99.90
11599;DHT22;5855;48.840;9.188;2024-01-06T12:39:50;6.30;99.90
11599;DHT22;5855;48.840;9.188;2024-01-06T12:42:17;6.20;99.90
11599;DHT22;5855;48.840;9.188;2024-01-06T12:44:45;6.30;99.90
11599;DHT22;5855;48.840;9.188;2024-01-06T12:47:12;6.30;99.90
11599;DHT22;5855;48.840;9.188;2024-01-06T12:49:39;6.30;99.90
11599;DHT22;5855;48.840;9.188;2024-01-06T12:52:07;6.30;99.90
11599;DHT22;5855;48.840;9.188;2024-01-06T12:54:34;6.20;99.90
11599;DHT22;5855;48.840;9.188;2024-01-06T12:57:01;6.20;99.90
11599;DHT22;5855;48.840;9.188;2024-01-06T12:59:28;6.20;99.90
11599;DHT22;5855;48.840;9.188;2024-01-06T13:01:55;6.10;99.90
11599;DHT22;5855;48.840;9.188;2024-01-06T13:04:22;6.00;99.90
11599;DHT22;5855;48.840;9.188;2024-01-06T13:06:49;6.00;99.90
11599;DHT22;5855;48.840;9.188;2024-01-06T13:09:17;5.90;99.90
11599;DHT22;5855;48.840;9.188;2024-01-06T13:11:44;6.00;99.90
11599;DHT22;5855;48.840;9.188;2024-01-06T13:14:11;5.90;99.90
11599;DHT22;5855;48.840;9.188;2024-01-06T13:16:38;5.90;99.90
11599;DHT22;5855;48.840;9.188;2024-01-06T13:19:05;5.80;99.90
11599;DHT22;5855;48.840;9.188;2024-01-06T13:21:32;5.80;99.90
11599;DHT22;5855;48.840;9.188;2024-01-06T13:23:59;5.80;99.90
11599;DHT22;5855;48.840;9.188;2024-01-06T13:26:29;5.80;99.90
11599;DHT22;5855;48.840;9.188;2024-01-06T13:28:56;5.80;99.90
11599;DHT22;5855;48.840;9.188;2024-01-06T13:31:23;5.90;99.90
11599;DHT22;5855;48.840;9.188;2024-01-06T13:33:50;5.80;99.90
11599;DHT22;5855;48.840;9.188;2024-01-06T13:36:20;5.80;99.90
11599;DHT22;5855;48.840;9.188;2024-01-06T13:38:46;5.70;99.90
11599;DHT22;5855;48.840;9.188;2024-01-06T13:41:16;5.70;99.90
11599;DHT22;5855;48.840;9.188;2024-01-06T13:43:46;5.60;99.90
11599;DHT22;5855;48.840;9.188;2024-01-06T13:46:14;5.60;99.90
11599;DHT22;5855;48.840;9.188;2024-01-06T13:48:41;5.70;99.90
11599;DHT22;5855;48.840;9.188;2024-01-06T13:51:09;5.70;99.90
11599;DHT22;5855;48.840;9.188;2024-01-06T13:53:36;5.70;99.90
11599;DHT22;5855;48.840;9.188;2024-01-06T13:56:04;5.60;99.90
11599;DHT22;5855;48.840;9.188;2024-01-06T13:58:31;5.60;99.90
11599;DHT22;5855;48.840;9.188;2024-01-06T14:00:59;5.60;99.90
11599;DHT22;5855;48.840;9.188;2024-01-06T14:03:26;5.60;99.90
11599;DHT22;5855;48.840;9.188;2024-01-06T14:05:53;5.50;99.90
11599;DHT22;5855;48.840;9.188;2024-01-06T14:08:20;5.50;99.90
11599;DHT22;5855;48.840;9.188;2024-01-06T14:10:46;5.50;99.90
11599;DHT22;5855;48.840;9.188;2024-01-06T14:13:13;5.50;99.90
11599;DHT22;5855;48.840;9.188;2024-01-06T14:15:40;5.50;99.90
11599;DHT22;5855;48.840;9.188;2024-01-06T14:18:08;5.50;99.90
11599;DHT22;5855;48.840;9.188;2024-01-06T14:20:36;5.50;99.90
11599;DHT22;5855;48.840;9.188;2024-01-06T14:23:04;5.60;99.90
11599;DHT22;5855;48.840;9.188;2024-01-06T14:25:30;5.70;99.90
11599;DHT22;5855;48.840;9.188;2024-01-06T14:27:57;5.70;99.90
11599;DHT22;5855;48.840;9.188;2024-01-06T14:30:24;5.70;99.90
11599;DHT22;5855;48.840;9.188;2024-01-06T14:32:53;5.70;99.90
11599;DHT22;5855;48.840;9.188;2024-01-06T14:35:21;5.70;99.90
11599;DHT22;5855;48.840;9.188;2024-01-06T14:37:48;5.70;99.90
11599;DHT22;5855;48.840;9.188;2024-01-06T14:40:16;5.70;99.90
11599;DHT22;5855;48.840;9.188;2024-01-06T14:42:43;5.70;99.90
11599;DHT22;5855;48.840;9.188;2024-01-06T14:45:10;5.70;99.90
11599;DHT22;5855;48.840;9.188;2024-01-06T14:47:37;5.70;99.90
11599;DHT22;5855;48.840;9.188;2024-01-06T14:50:04;5.70;99.90
11599;DHT22;5855;48.840;9.188;2024-01-06T14:52:33;5.60;99.90
11599;DHT22;5855;48.840;9.188;2024-01-06T14:54:59;5.70;99.90
11599;DHT22;5855;48.840;9.188;2024-01-06T14:57:26;5.70;99.90
11599;DHT22;5855;48.840;9.188;2024-01-06T14:59:53;5.70;99.90
11599;DHT22;5855;48.840;9.188;2024-01-06T15:02:20;5.70;99.90
11599;DHT22;5855;48.840;9.188;2024-01-06T15:04:47;5.70;99.90
11599;DHT22;5855;48.840;9.188;2024-01-06T15:07:14;5.70;99.90
11599;DHT22;5855;48.840;9.188;2024-01-06T15:09:42;5.70;99.90
11599;DHT22;5855;48.840;9.188;2024-01-06T15:12:09;5.60;99.90
11599;DHT22;5855;48.840;9.188;2024-01-06T15:14:36;5.60;99.90
11599;DHT22;5855;48.840;9.188;2024-01-06T15:17:03;5.60;99.90
11599;DHT22;5855;48.840;9.188;2024-01-06T15:19:30;5.60;99.90
11599;DHT22;5855;48.840;9.188;2024-01-06T15:21:58;5.60;99.90
11599;DHT22;5855;48.840;9.188;2024-01-06T15:24:25;5.60;99.90
11599;DHT22;5855;48.840;9.188;2024-01-06T15:26:53;5.60;99.90
11599;DHT22;5855;48.840;9.188;2024-01-06T15:29:23;5.60;99.90
11599;DHT22;5855;48.840;9.188;2024-01-06T15:31:50;5.50;99.90
11599;DHT22;5855;48.840;9.188;2024-01-06T15:34:22;5.50;99.90
11599;DHT22;5855;48.840;9.188;2024-01-06T15:36:49;5.60;99.90
11599;DHT22;5855;48.840;9.188;2024-01-06T15:39:16;5.60;99.90
11599;DHT22;5855;48.840;9.188;2024-01-06T15:41:43;5.60;99.90
11599;DHT22;5855;48.840;9.188;2024-01-06T15:44:11;5.60;99.90
11599;DHT22;5855;48.840;9.188;2024-01-06T15:46:38;5.60;99.90
11599;DHT22;5855;48.840;9.188;2024-01-06T15:49:05;5.60;99.90
11599;DHT22;5855;48.840;9.188;2024-01-06T15:51:32;5.50;99.90
11599;DHT22;5855;48.840;9.188;2024-01-06T15:53:58;5.40;99.90
11599;DHT22;5855;48.840;9.188;2024-01-06T15:56:25;5.30;99.90
11599;DHT22;5855;48.840;9.188;2024-01-06T15:58:52;5.30;99.90
11599;DHT22;5855;48.840;9.188;2024-01-06T16:01:23;5.30;99.90
11599;DHT22;5855;48.840;9.188;2024-01-06T16:03:50;5.30;99.90